createdAt,value
2022-08-11T00:01:27.061Z,1
2022-08-11T00:03:10.766Z,0
2022-08-11T00:04:54.470Z,0
2022-08-11T00:06:38.167Z,1
2022-08-11T00:08:21.871Z,0
2022-08-11T00:10:05.571Z,0
2022-08-11T00:11:49.294Z,0
2022-08-11T00:13:32.976Z,1
2022-08-11T00:15:16.671Z,0
2022-08-11T00:17:00.379Z,0
2022-08-11T00:18:44.077Z,1
2022-08-11T00:20:27.793Z,0
2022-08-11T00:22:11.479Z,0
2022-08-11T00:23:55.202Z,0
2022-08-11T00:25:38.883Z,2
2022-08-11T00:27:22.593Z,1
2022-08-11T00:29:06.290Z,1
2022-08-11T00:30:50.004Z,0
2022-08-11T00:32:33.697Z,1
2022-08-11T00:34:17.394Z,0
2022-08-11T00:36:01.108Z,1
2022-08-11T00:37:44.803Z,1
2022-08-11T00:39:28.506Z,1
2022-08-11T00:41:12.211Z,1
2022-08-11T00:42:55.912Z,1
2022-08-11T00:44:39.606Z,1
2022-08-11T00:46:23.316Z,1
2022-08-11T00:48:07.015Z,1
2022-08-11T00:49:50.722Z,0
2022-08-11T00:51:34.421Z,1
2022-08-11T00:53:18.135Z,1
2022-08-11T00:55:01.836Z,1
2022-08-11T00:56:45.540Z,1
2022-08-11T00:58:29.231Z,0
2022-08-11T01:00:12.944Z,1
2022-08-11T01:01:56.638Z,1
2022-08-11T01:03:40.340Z,0
2022-08-11T01:05:24.054Z,0
2022-08-11T01:07:07.740Z,0
2022-08-11T01:08:51.443Z,0
2022-08-11T01:10:35.153Z,1
2022-08-11T01:12:18.855Z,0
2022-08-11T01:14:02.558Z,0
2022-08-11T01:15:46.260Z,1
2022-08-11T01:17:29.961Z,1
2022-08-11T01:19:13.671Z,0
2022-08-11T01:20:57.370Z,1
2022-08-11T01:22:41.063Z,1
2022-08-11T01:24:24.773Z,1
2022-08-11T01:26:08.472Z,0
2022-08-11T01:27:52.175Z,1
2022-08-11T01:29:35.876Z,0
2022-08-11T01:31:19.577Z,0
2022-08-11T01:33:03.277Z,1
2022-08-11T01:34:46.981Z,1
2022-08-11T01:36:30.687Z,1
2022-08-11T01:38:14.384Z,0
2022-08-11T01:39:58.087Z,1
2022-08-11T01:41:41.788Z,0
2022-08-11T01:43:25.495Z,0
2022-08-11T01:45:09.190Z,1
2022-08-11T01:46:52.891Z,1
2022-08-11T01:48:36.601Z,0
2022-08-11T01:50:20.297Z,1
2022-08-11T01:52:04.004Z,1
2022-08-11T01:53:47.713Z,0
2022-08-11T01:55:31.403Z,1
2022-08-11T01:57:15.112Z,1
2022-08-11T01:58:58.809Z,1
2022-08-11T02:00:42.517Z,1
2022-08-11T02:02:26.227Z,1
2022-08-11T02:04:09.912Z,1
2022-08-11T02:05:53.617Z,1
2022-08-11T02:07:37.319Z,1
2022-08-11T02:09:21.011Z,1
2022-08-11T02:11:04.718Z,0
2022-08-11T02:12:48.436Z,1
2022-08-11T02:14:32.122Z,0
2022-08-11T02:16:15.861Z,1
2022-08-11T02:17:59.525Z,0
2022-08-11T02:19:43.236Z,0
2022-08-11T02:21:26.957Z,0
2022-08-11T02:23:10.637Z,0
2022-08-11T02:24:54.341Z,1
2022-08-11T02:26:38.043Z,1
2022-08-11T02:28:21.744Z,1
2022-08-11T02:30:05.448Z,1
2022-08-11T02:31:49.152Z,1
2022-08-11T02:33:32.877Z,1
2022-08-11T02:35:16.555Z,0
2022-08-11T02:37:00.256Z,1
2022-08-11T02:38:43.958Z,1
2022-08-11T02:40:27.691Z,1
2022-08-11T02:42:11.354Z,0
2022-08-11T02:43:55.066Z,0
2022-08-11T02:45:38.764Z,1
2022-08-11T02:47:22.464Z,1
2022-08-11T02:49:06.175Z,0
2022-08-11T02:50:49.872Z,1
2022-08-11T02:52:33.569Z,1
2022-08-11T02:54:17.279Z,1
2022-08-11T02:56:00.975Z,0
2022-08-11T02:57:44.674Z,0
2022-08-11T02:59:28.383Z,1
2022-08-11T03:01:12.075Z,1
2022-08-11T03:02:55.786Z,1
2022-08-11T03:04:39.483Z,1
2022-08-11T03:06:23.190Z,0
2022-08-11T03:08:06.892Z,1
2022-08-11T03:09:50.597Z,0
2022-08-11T03:11:34.297Z,1
2022-08-11T03:13:17.998Z,1
2022-08-11T03:15:01.701Z,0
2022-08-11T03:16:45.404Z,0
2022-08-11T03:18:29.103Z,0
2022-08-11T03:20:12.797Z,2
2022-08-11T03:21:56.504Z,1
2022-08-11T03:23:40.237Z,1
2022-08-11T03:25:23.917Z,1
2022-08-11T03:27:07.616Z,1
2022-08-11T03:28:51.311Z,1
2022-08-11T03:30:35.018Z,0
2022-08-11T03:32:18.723Z,2
2022-08-11T03:34:02.418Z,1
2022-08-11T03:35:46.126Z,1
2022-08-11T03:37:29.838Z,2
2022-08-11T03:39:13.525Z,3
2022-08-11T03:40:57.229Z,3
2022-08-11T03:42:40.943Z,4
2022-08-11T03:44:24.630Z,4
2022-08-11T03:46:08.350Z,5
2022-08-11T03:47:52.037Z,6
2022-08-11T03:49:35.745Z,7
2022-08-11T03:51:19.464Z,9
2022-08-11T03:53:03.135Z,11
2022-08-11T03:54:46.841Z,14
2022-08-11T03:56:30.546Z,16
2022-08-11T03:58:14.253Z,19
2022-08-11T03:59:57.958Z,22
2022-08-11T04:01:41.647Z,26
2022-08-11T04:03:25.348Z,30
2022-08-11T04:05:09.051Z,35
2022-08-11T04:06:52.751Z,41
2022-08-11T04:08:36.453Z,47
2022-08-11T04:10:20.158Z,53
2022-08-11T04:12:03.864Z,60
2022-08-11T04:13:47.552Z,68
2022-08-11T04:15:31.269Z,78
2022-08-11T04:17:14.964Z,89
2022-08-11T04:18:58.665Z,101
2022-08-11T04:20:42.361Z,115
2022-08-11T04:22:26.059Z,131
2022-08-11T04:24:09.767Z,146
2022-08-11T04:25:53.460Z,163
2022-08-11T04:27:37.171Z,187
2022-08-11T04:29:20.872Z,216
2022-08-11T04:31:04.563Z,243
2022-08-11T04:32:48.275Z,264
2022-08-11T04:34:31.963Z,286
2022-08-11T04:36:15.676Z,307
2022-08-11T04:37:59.372Z,329
2022-08-11T04:39:43.062Z,347
2022-08-11T04:41:26.774Z,371
2022-08-11T04:43:10.475Z,393
2022-08-11T04:44:54.165Z,413
2022-08-11T04:46:37.877Z,434
2022-08-11T04:48:21.574Z,454
2022-08-11T04:50:05.281Z,474
2022-08-11T04:51:48.971Z,497
2022-08-11T04:53:32.676Z,517
2022-08-11T04:55:16.378Z,537
2022-08-11T04:57:00.086Z,559
2022-08-11T04:58:43.773Z,580
2022-08-11T05:00:27.481Z,600
2022-08-11T05:02:11.180Z,622
2022-08-11T05:03:54.880Z,640
2022-08-11T05:05:38.622Z,662
2022-08-11T05:07:22.306Z,679
2022-08-11T05:09:05.986Z,697
2022-08-11T05:10:49.691Z,713
2022-08-11T05:12:33.393Z,729
2022-08-11T05:14:17.102Z,744
2022-08-11T05:16:00.802Z,744
2022-08-11T05:17:44.491Z,745
2022-08-11T05:19:28.207Z,744
2022-08-11T05:21:11.914Z,744
2022-08-11T05:22:55.600Z,744
2022-08-11T05:24:39.302Z,745
2022-08-11T05:26:23.008Z,743
2022-08-11T05:28:06.699Z,746
2022-08-11T05:29:50.420Z,745
2022-08-11T05:31:34.109Z,745
2022-08-11T05:33:17.813Z,744
2022-08-11T05:35:01.511Z,746
2022-08-11T05:36:45.209Z,745
2022-08-11T05:38:28.911Z,745
2022-08-11T05:40:12.613Z,746
2022-08-11T05:41:56.313Z,745
2022-08-11T05:43:40.014Z,745
2022-08-11T05:45:23.718Z,745
2022-08-11T05:47:07.413Z,745
2022-08-11T05:48:51.119Z,744
2022-08-11T05:50:34.829Z,743
2022-08-11T05:52:18.531Z,746
2022-08-11T05:54:02.228Z,745
2022-08-11T05:55:45.923Z,745
2022-08-11T05:57:29.626Z,746
2022-08-11T05:59:13.328Z,745
2022-08-11T06:00:57.040Z,746
2022-08-11T06:02:40.725Z,745
2022-08-11T06:04:24.441Z,745
2022-08-11T06:06:08.135Z,746
2022-08-11T06:07:51.834Z,745
2022-08-11T06:09:35.542Z,737
2022-08-11T06:11:19.250Z,744
2022-08-11T06:13:02.953Z,745
2022-08-11T06:14:46.645Z,744
2022-08-11T06:16:30.345Z,746
2022-08-11T06:18:14.050Z,745
2022-08-11T06:19:57.753Z,745
2022-08-11T06:21:41.452Z,745
2022-08-11T06:23:25.168Z,745
2022-08-11T06:25:08.860Z,746
2022-08-11T06:26:52.561Z,745
2022-08-11T06:28:36.269Z,737
2022-08-11T06:30:19.997Z,746
2022-08-11T06:32:03.707Z,745
2022-08-11T06:33:47.391Z,745
2022-08-11T06:35:31.085Z,746
2022-08-11T06:37:14.779Z,746
2022-08-11T06:38:58.486Z,745
2022-08-11T06:40:42.188Z,746
2022-08-11T06:42:25.892Z,745
2022-08-11T06:44:09.582Z,745
2022-08-11T06:45:53.289Z,746
2022-08-11T06:47:36.994Z,745
2022-08-11T06:49:20.696Z,745
2022-08-11T06:51:04.411Z,745
2022-08-11T06:52:48.111Z,746
2022-08-11T06:54:31.827Z,745
2022-08-11T06:56:15.504Z,745
2022-08-11T06:57:59.200Z,746
2022-08-11T06:59:42.902Z,746
2022-08-11T07:01:26.608Z,744
2022-08-11T07:03:10.315Z,745
2022-08-11T07:04:54.010Z,745
2022-08-11T07:06:37.715Z,745
2022-08-11T07:08:21.414Z,745
2022-08-11T07:10:05.123Z,746
2022-08-11T07:11:48.822Z,746
2022-08-11T07:13:32.523Z,745
2022-08-11T07:15:16.230Z,746
2022-08-11T07:16:59.945Z,745
2022-08-11T07:18:43.635Z,746
2022-08-11T07:20:27.333Z,745
2022-08-11T07:22:11.037Z,746
2022-08-11T07:23:54.739Z,745
2022-08-11T07:25:38.445Z,745
2022-08-11T07:27:22.144Z,746
2022-08-11T07:29:05.857Z,746
2022-08-11T07:30:49.545Z,745
2022-08-11T07:32:33.251Z,746
2022-08-11T07:34:16.960Z,746
2022-08-11T07:36:00.659Z,745
2022-08-11T07:37:44.368Z,746
2022-08-11T07:39:28.065Z,745
2022-08-11T07:41:11.760Z,746
2022-08-11T07:42:55.463Z,746
2022-08-11T07:44:39.164Z,746
2022-08-11T07:46:22.869Z,746
2022-08-11T07:48:06.573Z,746
2022-08-11T07:49:50.269Z,746
2022-08-11T07:51:33.975Z,746
2022-08-11T07:53:17.685Z,746
2022-08-11T07:55:01.377Z,746
2022-08-11T07:56:45.096Z,746
2022-08-11T07:58:28.785Z,745
2022-08-11T08:00:12.489Z,746
2022-08-11T08:01:56.194Z,746
2022-08-11T08:03:39.891Z,746
2022-08-11T08:05:23.588Z,745
2022-08-11T08:07:07.300Z,745
2022-08-11T08:08:50.988Z,746
2022-08-11T08:10:34.697Z,746
2022-08-11T08:12:18.404Z,745
2022-08-11T08:14:02.102Z,745
2022-08-11T08:15:45.808Z,746
2022-08-11T08:17:29.511Z,737
2022-08-11T08:19:13.227Z,746
2022-08-11T08:20:56.910Z,746
2022-08-11T08:22:40.613Z,744
2022-08-11T08:24:24.310Z,745
2022-08-11T08:26:08.018Z,746
2022-08-11T08:27:51.711Z,746
2022-08-11T08:29:35.435Z,746
2022-08-11T08:31:19.132Z,746
2022-08-11T08:33:02.843Z,747
2022-08-11T08:34:46.542Z,746
2022-08-11T08:36:30.233Z,745
2022-08-11T08:38:13.952Z,746
2022-08-11T08:39:57.643Z,746
2022-08-11T08:41:41.348Z,745
2022-08-11T08:43:25.063Z,747
2022-08-11T08:45:08.739Z,747
2022-08-11T08:46:52.434Z,746
2022-08-11T08:48:36.149Z,745
2022-08-11T08:50:19.940Z,746
2022-08-11T08:52:03.574Z,747
2022-08-11T08:53:47.244Z,746
2022-08-11T08:55:30.950Z,746
2022-08-11T08:57:14.651Z,747
2022-08-11T08:58:58.360Z,746
2022-08-11T09:00:42.049Z,746
2022-08-11T09:02:25.756Z,747
2022-08-11T09:04:09.465Z,747
2022-08-11T09:05:53.154Z,747
2022-08-11T09:07:36.868Z,747
2022-08-11T09:09:20.566Z,746
2022-08-11T09:11:04.261Z,747
2022-08-11T09:12:47.964Z,746
2022-08-11T09:14:31.666Z,747
2022-08-11T09:16:15.367Z,747
2022-08-11T09:17:59.079Z,746
2022-08-11T09:19:42.781Z,746
2022-08-11T09:21:26.476Z,747
2022-08-11T09:23:10.181Z,746
2022-08-11T09:24:53.877Z,748
2022-08-11T09:28:21.295Z,746
2022-08-11T09:30:04.989Z,746
2022-08-11T09:31:48.692Z,747
2022-08-11T09:33:32.396Z,746
2022-08-11T09:35:16.096Z,747
2022-08-11T09:36:59.808Z,748
2022-08-11T09:38:43.499Z,746
2022-08-11T09:40:27.201Z,747
2022-08-11T09:42:10.948Z,746
2022-08-11T09:43:54.605Z,747
2022-08-11T09:45:38.328Z,747
2022-08-11T09:47:22.011Z,746
2022-08-11T09:49:05.707Z,747
2022-08-11T09:50:49.413Z,747
2022-08-11T09:52:33.121Z,746
2022-08-11T09:54:16.815Z,747
2022-08-11T09:56:00.516Z,747
2022-08-11T09:57:44.223Z,736
2022-08-11T09:59:27.925Z,747
2022-08-11T10:02:55.323Z,747
2022-08-11T10:04:39.030Z,746
2022-08-11T10:06:22.738Z,747
2022-08-11T10:08:06.429Z,747
2022-08-11T10:09:50.141Z,747
2022-08-11T10:11:33.841Z,747
2022-08-11T10:13:17.536Z,747
2022-08-11T10:15:01.244Z,747
2022-08-11T10:16:44.959Z,746
2022-08-11T10:18:28.639Z,746
2022-08-11T10:20:12.344Z,748
2022-08-11T10:21:56.053Z,746
2022-08-11T10:23:39.753Z,747
2022-08-11T10:25:23.462Z,747
2022-08-11T10:27:07.149Z,746
2022-08-11T10:28:50.858Z,746
2022-08-11T10:30:34.569Z,747
2022-08-11T10:32:18.265Z,747
2022-08-11T10:34:01.985Z,747
2022-08-11T10:35:45.669Z,746
2022-08-11T10:37:29.369Z,747
2022-08-11T10:39:13.069Z,747
2022-08-11T10:40:56.772Z,746
2022-08-11T10:42:40.477Z,747
2022-08-11T10:44:24.182Z,747
2022-08-11T10:46:07.875Z,748
2022-08-11T10:47:51.589Z,747
2022-08-11T10:49:35.286Z,748
2022-08-11T10:51:18.983Z,747
2022-08-11T10:53:02.691Z,747
2022-08-11T10:54:46.391Z,747
2022-08-11T10:56:30.087Z,747
2022-08-11T10:58:13.793Z,747
2022-08-11T10:59:57.492Z,738
2022-08-11T11:01:41.212Z,747
2022-08-11T11:03:24.903Z,748
2022-08-11T11:05:08.600Z,747
2022-08-11T11:06:52.300Z,749
2022-08-11T11:08:36.018Z,747
2022-08-11T11:10:19.702Z,747
2022-08-11T11:12:03.406Z,747
2022-08-11T11:13:47.110Z,746
2022-08-11T11:15:30.808Z,746
2022-08-11T11:17:14.510Z,747
2022-08-11T11:18:58.213Z,747
2022-08-11T11:20:41.915Z,746
2022-08-11T11:22:25.628Z,747
2022-08-11T11:25:53.018Z,747
2022-08-11T11:27:36.727Z,746
2022-08-11T11:29:20.427Z,748
2022-08-11T11:31:04.126Z,748
2022-08-11T11:32:47.836Z,747
2022-08-11T11:34:31.522Z,747
2022-08-11T11:36:15.227Z,748
2022-08-11T11:37:58.934Z,747
2022-08-11T11:39:42.625Z,747
2022-08-11T11:41:26.334Z,748
2022-08-11T11:43:10.045Z,739
2022-08-11T11:44:53.733Z,747
2022-08-11T11:46:37.438Z,748
2022-08-11T11:48:21.135Z,748
2022-08-11T11:50:04.854Z,748
2022-08-11T11:51:48.553Z,747
2022-08-11T11:53:32.245Z,748
2022-08-11T11:55:15.970Z,748
2022-08-11T11:56:59.653Z,747
2022-08-11T11:58:43.351Z,748
2022-08-11T12:00:27.053Z,748
2022-08-11T12:02:10.766Z,747
2022-08-11T12:03:54.463Z,747
2022-08-11T12:05:38.183Z,748
2022-08-11T12:07:21.864Z,738
2022-08-11T12:09:05.566Z,747
2022-08-11T12:10:49.265Z,748
2022-08-11T12:12:32.967Z,747
2022-08-11T12:14:16.671Z,748
2022-08-11T12:16:00.383Z,748
2022-08-11T12:17:44.068Z,748
2022-08-11T12:19:27.769Z,747
2022-08-11T12:21:11.485Z,747
2022-08-11T12:22:55.173Z,748
2022-08-11T12:24:38.883Z,748
2022-08-11T12:26:22.584Z,738
2022-08-11T12:28:06.292Z,748
2022-08-11T12:29:49.989Z,748
2022-08-11T12:31:33.690Z,747
2022-08-11T12:33:17.391Z,748
2022-08-11T12:35:01.093Z,748
2022-08-11T12:36:44.792Z,748
2022-08-11T12:38:28.490Z,748
2022-08-11T12:40:12.195Z,747
2022-08-11T12:41:55.892Z,748
2022-08-11T12:43:39.603Z,747
2022-08-11T12:45:23.300Z,746
2022-08-11T12:47:07.015Z,748
2022-08-11T12:48:50.708Z,748
2022-08-11T12:50:34.422Z,748
2022-08-11T12:52:18.118Z,747
2022-08-11T12:54:01.811Z,748
2022-08-11T12:55:45.514Z,747
2022-08-11T12:57:29.221Z,748
2022-08-11T12:59:12.923Z,747
2022-08-11T13:00:56.625Z,747
2022-08-11T13:02:40.349Z,748
2022-08-11T13:04:24.019Z,748
2022-08-11T13:06:07.723Z,748
2022-08-11T13:07:51.432Z,747
2022-08-11T13:09:35.126Z,748
2022-08-11T13:11:18.829Z,749
2022-08-11T13:13:02.542Z,748
2022-08-11T13:14:46.230Z,747
2022-08-11T13:16:29.940Z,749
2022-08-11T13:18:13.656Z,741
2022-08-11T13:19:57.341Z,748
2022-08-11T13:21:41.042Z,749
2022-08-11T13:23:24.784Z,749
2022-08-11T13:25:08.454Z,748
2022-08-11T13:26:52.148Z,748
2022-08-11T13:28:35.849Z,748
2022-08-11T13:30:19.552Z,748
2022-08-11T13:32:03.279Z,748
2022-08-11T13:33:46.958Z,748
2022-08-11T13:35:30.662Z,748
2022-08-11T13:37:14.357Z,747
2022-08-11T13:38:58.063Z,749
2022-08-11T13:40:41.772Z,748
2022-08-11T13:42:25.459Z,748
2022-08-11T13:44:09.184Z,749
2022-08-11T13:45:52.869Z,749
2022-08-11T13:47:36.577Z,747
2022-08-11T13:49:20.272Z,748
2022-08-11T13:51:03.979Z,747
2022-08-11T13:52:47.669Z,748
2022-08-11T13:54:31.392Z,748
2022-08-11T13:56:15.078Z,748
2022-08-11T13:57:58.792Z,749
2022-08-11T13:59:42.491Z,748
2022-08-11T14:01:26.185Z,749
2022-08-11T14:03:09.910Z,748
2022-08-11T14:04:53.596Z,748
2022-08-11T14:06:37.286Z,748
2022-08-11T14:08:20.996Z,749
2022-08-11T14:10:04.700Z,739
2022-08-11T14:11:48.398Z,748
2022-08-11T14:13:32.102Z,748
2022-08-11T14:15:15.802Z,749
2022-08-11T14:16:59.514Z,748
2022-08-11T14:18:43.223Z,747
2022-08-11T14:20:26.915Z,748
2022-08-11T14:22:10.613Z,747
2022-08-11T14:23:54.321Z,747
2022-08-11T14:25:38.024Z,748
2022-08-11T14:27:21.720Z,749
2022-08-11T14:29:05.445Z,745
2022-08-11T14:30:49.130Z,748
2022-08-11T14:32:32.830Z,748
2022-08-11T14:34:16.530Z,748
2022-08-11T14:36:00.237Z,748
2022-08-11T14:37:43.935Z,749
2022-08-11T14:39:27.635Z,748
2022-08-11T14:41:11.340Z,748
2022-08-11T14:42:55.052Z,748
2022-08-11T14:44:38.748Z,749
2022-08-11T14:46:22.464Z,748
2022-08-11T14:48:06.157Z,747
2022-08-11T14:49:49.853Z,748
2022-08-11T14:51:33.558Z,748
2022-08-11T14:53:17.257Z,747
2022-08-11T14:55:00.957Z,749
2022-08-11T14:56:44.660Z,748
2022-08-11T14:58:28.360Z,748
2022-08-11T15:00:12.063Z,748
2022-08-11T15:01:55.762Z,747
2022-08-11T15:03:39.457Z,748
2022-08-11T15:05:23.160Z,747
2022-08-11T15:07:06.877Z,748
2022-08-11T15:08:50.569Z,748
2022-08-11T15:10:34.273Z,748
2022-08-11T15:12:17.989Z,749
2022-08-11T15:14:01.681Z,748
2022-08-11T15:15:45.385Z,748
2022-08-11T15:17:29.082Z,748
2022-08-11T15:19:12.788Z,749
2022-08-11T15:20:56.497Z,748
2022-08-11T15:22:40.185Z,748
2022-08-11T15:24:23.893Z,748
2022-08-11T15:26:07.591Z,747
2022-08-11T15:27:51.292Z,748
2022-08-11T15:29:34.999Z,749
2022-08-11T15:31:18.695Z,749
2022-08-11T15:33:02.397Z,748
2022-08-11T15:34:46.104Z,748
2022-08-11T15:36:29.792Z,749
2022-08-11T15:38:13.497Z,748
2022-08-11T15:39:57.213Z,747
2022-08-11T15:41:40.899Z,748
2022-08-11T15:43:24.607Z,748
2022-08-11T15:45:08.305Z,746
2022-08-11T15:46:52.011Z,748
2022-08-11T15:48:35.710Z,748
2022-08-11T15:50:19.416Z,748
2022-08-11T15:52:03.118Z,749
2022-08-11T15:53:46.823Z,748
2022-08-11T15:55:30.514Z,747
2022-08-11T15:57:14.219Z,748
2022-08-11T15:58:57.925Z,741
2022-08-11T16:00:41.627Z,747
2022-08-11T16:02:25.325Z,747
2022-08-11T16:04:09.025Z,748
2022-08-11T16:05:52.737Z,749
2022-08-11T16:07:36.437Z,748
2022-08-11T16:09:20.138Z,748
2022-08-11T16:11:03.830Z,749
2022-08-11T16:12:47.538Z,748
2022-08-11T16:14:31.230Z,748
2022-08-11T16:16:14.932Z,749
2022-08-11T16:17:58.641Z,740
2022-08-11T16:19:42.352Z,748
2022-08-11T16:21:26.050Z,749
2022-08-11T16:23:09.746Z,749
2022-08-11T16:24:53.449Z,748
2022-08-11T16:26:37.154Z,748
2022-08-11T16:28:20.851Z,749
2022-08-11T16:30:04.554Z,748
2022-08-11T16:31:48.259Z,748
2022-08-11T16:33:31.950Z,749
2022-08-11T16:35:15.659Z,748
2022-08-11T16:36:59.367Z,747
2022-08-11T16:38:43.063Z,749
2022-08-11T16:40:26.771Z,748
2022-08-11T16:42:10.467Z,749
2022-08-11T16:43:54.182Z,748
2022-08-11T16:45:37.881Z,748
2022-08-11T16:47:21.567Z,749
2022-08-11T16:49:05.277Z,748
2022-08-11T16:50:48.980Z,748
2022-08-11T16:52:32.666Z,749
2022-08-11T16:54:16.377Z,749
2022-08-11T16:56:00.085Z,748
2022-08-11T16:57:43.788Z,749
2022-08-11T16:59:27.484Z,748
2022-08-11T17:01:11.180Z,749
2022-08-11T17:02:54.882Z,749
2022-08-11T17:04:38.593Z,749
2022-08-11T17:06:22.291Z,749
2022-08-11T17:08:05.985Z,749
2022-08-11T17:09:49.693Z,748
2022-08-11T17:11:33.394Z,748
2022-08-11T17:13:17.105Z,749
2022-08-11T17:15:00.787Z,749
2022-08-11T17:16:44.491Z,749
2022-08-11T17:18:28.198Z,749
2022-08-11T17:20:11.903Z,749
2022-08-11T17:21:55.603Z,748
2022-08-11T17:23:39.315Z,747
2022-08-11T17:25:23.003Z,749
2022-08-11T17:27:06.706Z,750
2022-08-11T17:28:50.411Z,749
2022-08-11T17:30:34.115Z,749
2022-08-11T17:32:17.819Z,749
2022-08-11T17:34:01.511Z,750
2022-08-11T17:35:45.216Z,749
2022-08-11T17:37:28.914Z,749
2022-08-11T17:39:12.617Z,750
2022-08-11T17:40:56.320Z,749
2022-08-11T17:42:40.024Z,749
2022-08-11T17:44:23.723Z,750
2022-08-11T17:46:07.427Z,748
2022-08-11T17:47:51.126Z,749
2022-08-11T17:49:34.832Z,750
2022-08-11T17:51:18.537Z,748
2022-08-11T17:53:02.234Z,749
2022-08-11T17:54:45.935Z,748
2022-08-11T17:58:13.341Z,748
2022-08-11T17:59:57.044Z,749
2022-08-11T18:01:40.747Z,749
2022-08-11T18:03:24.445Z,750
2022-08-11T18:05:08.149Z,749
2022-08-11T18:06:51.844Z,749
2022-08-11T18:08:35.549Z,749
2022-08-11T18:10:19.249Z,749
2022-08-11T18:12:02.957Z,748
2022-08-11T18:13:46.662Z,749
2022-08-11T18:15:30.354Z,748
2022-08-11T18:17:14.062Z,748
2022-08-11T18:18:57.764Z,749
2022-08-11T18:20:41.461Z,749
2022-08-11T18:22:25.169Z,748
2022-08-11T18:24:08.873Z,687
2022-08-11T18:25:52.579Z,519
2022-08-11T18:27:36.280Z,410
2022-08-11T18:29:19.985Z,369
2022-08-11T18:31:03.681Z,321
2022-08-11T18:32:47.387Z,279
2022-08-11T18:34:31.079Z,258
2022-08-11T18:36:14.795Z,254
2022-08-11T18:37:58.487Z,229
2022-08-11T18:39:42.195Z,193
2022-08-11T18:41:25.892Z,161
2022-08-11T18:43:09.589Z,133
2022-08-11T18:44:53.298Z,109
2022-08-11T18:46:37.004Z,93
2022-08-11T18:48:20.715Z,78
2022-08-11T18:50:04.426Z,70
2022-08-11T18:51:48.102Z,65
2022-08-11T18:53:31.812Z,66
2022-08-11T18:55:15.529Z,65
2022-08-11T18:56:59.205Z,65
2022-08-11T18:58:42.915Z,60
2022-08-11T19:00:26.637Z,55
2022-08-11T19:02:10.312Z,49
2022-08-11T19:03:54.019Z,43
2022-08-11T19:05:37.715Z,36
2022-08-11T19:07:21.421Z,29
2022-08-11T19:09:05.122Z,23
2022-08-11T19:10:48.826Z,18
2022-08-11T19:12:32.526Z,13
2022-08-11T19:14:16.234Z,9
2022-08-11T19:15:59.936Z,6
2022-08-11T19:17:43.634Z,5
2022-08-11T19:19:27.337Z,3
2022-08-11T19:21:11.045Z,3
2022-08-11T19:22:54.746Z,2
2022-08-11T19:24:38.441Z,1
2022-08-11T19:26:22.151Z,1
2022-08-11T19:28:05.851Z,2
2022-08-11T19:29:49.559Z,1
2022-08-11T19:31:33.251Z,1
2022-08-11T19:33:16.956Z,1
2022-08-11T19:35:00.653Z,2
2022-08-11T19:36:44.361Z,1
2022-08-11T19:38:28.070Z,1
2022-08-11T19:40:11.763Z,1
2022-08-11T19:41:55.473Z,1
2022-08-11T19:43:39.166Z,0
2022-08-11T19:45:22.871Z,1
2022-08-11T19:47:06.568Z,1
2022-08-11T19:48:50.264Z,1
2022-08-11T19:50:33.967Z,2
2022-08-11T19:52:17.674Z,1
2022-08-11T19:54:01.389Z,1
2022-08-11T19:55:45.092Z,1
2022-08-11T19:57:28.780Z,9
2022-08-11T19:59:12.487Z,9
2022-08-11T20:00:56.188Z,9
2022-08-11T20:02:39.905Z,9
2022-08-11T20:04:23.594Z,9
2022-08-11T20:06:07.297Z,9
2022-08-11T20:07:50.990Z,9
2022-08-11T20:09:34.694Z,8
2022-08-11T20:11:18.407Z,8
2022-08-11T20:13:02.101Z,9
2022-08-11T20:14:45.810Z,9
2022-08-11T20:16:29.502Z,9
2022-08-11T20:18:13.227Z,9
2022-08-11T20:19:56.917Z,8
2022-08-11T20:21:40.608Z,9
2022-08-11T20:23:24.311Z,9
2022-08-11T20:25:08.024Z,9
2022-08-11T20:26:51.717Z,9
2022-08-11T20:28:35.424Z,9
2022-08-11T20:30:19.142Z,9
2022-08-11T20:32:02.838Z,9
2022-08-11T20:33:46.529Z,9
2022-08-11T20:35:30.232Z,9
2022-08-11T20:37:13.936Z,9
2022-08-11T20:38:57.645Z,9
2022-08-11T20:40:41.346Z,9
2022-08-11T20:42:25.061Z,9
2022-08-11T20:44:08.750Z,9
2022-08-11T20:45:52.442Z,9
2022-08-11T20:47:36.167Z,9
2022-08-11T20:49:19.889Z,9
2022-08-11T20:51:03.547Z,9
2022-08-11T20:52:47.277Z,7
2022-08-11T20:54:30.964Z,9
2022-08-11T20:56:14.666Z,9
2022-08-11T20:57:58.362Z,9
2022-08-11T20:59:42.063Z,9
2022-08-11T21:01:25.773Z,9
2022-08-11T21:03:09.470Z,9
2022-08-11T21:04:53.176Z,9
2022-08-11T21:06:36.894Z,9
2022-08-11T21:08:20.587Z,10
2022-08-11T21:10:04.266Z,1
2022-08-11T21:11:47.979Z,1
2022-08-11T21:13:31.678Z,1
2022-08-11T21:15:15.374Z,0
2022-08-11T21:16:59.114Z,0
2022-08-11T21:18:42.794Z,0
2022-08-11T21:20:26.491Z,1
2022-08-11T21:22:10.187Z,1
2022-08-11T21:23:53.889Z,1
2022-08-11T21:25:37.591Z,1
2022-08-11T21:27:21.292Z,1
2022-08-11T21:29:04.990Z,0
2022-08-11T21:30:48.695Z,0
2022-08-11T21:32:32.397Z,1
2022-08-11T21:34:16.100Z,0
2022-08-11T21:35:59.803Z,2
2022-08-11T21:37:43.499Z,10
2022-08-11T21:39:27.205Z,9
2022-08-11T21:41:10.906Z,9
2022-08-11T21:42:54.610Z,9
2022-08-11T21:44:38.308Z,9
2022-08-11T21:46:22.011Z,9
2022-08-11T21:48:05.720Z,9
2022-08-11T21:49:49.413Z,9
2022-08-11T21:51:33.115Z,9
2022-08-11T21:53:16.822Z,10
2022-08-11T21:55:00.520Z,9
2022-08-11T21:56:44.220Z,0
2022-08-11T21:58:27.922Z,1
2022-08-11T22:00:11.627Z,1
2022-08-11T22:01:55.326Z,1
2022-08-11T22:03:39.055Z,1
2022-08-11T22:05:22.775Z,0
2022-08-11T22:07:06.425Z,1
2022-08-11T22:08:50.139Z,1
2022-08-11T22:10:33.839Z,2
2022-08-11T22:12:17.540Z,0
2022-08-11T22:14:01.236Z,1
2022-08-11T22:15:44.944Z,0
2022-08-11T22:17:28.642Z,1
2022-08-11T22:19:12.348Z,1
2022-08-11T22:20:56.050Z,1
2022-08-11T22:22:39.751Z,1
2022-08-11T22:24:23.462Z,1
2022-08-11T22:26:07.150Z,1
2022-08-11T22:27:50.857Z,1
2022-08-11T22:29:34.564Z,0
2022-08-11T22:31:18.252Z,0
2022-08-11T22:33:01.967Z,1
2022-08-11T22:34:45.666Z,0
2022-08-11T22:36:29.359Z,1
2022-08-11T22:38:13.070Z,1
2022-08-11T22:39:56.776Z,1
2022-08-11T22:41:40.474Z,1
2022-08-11T22:43:24.175Z,0
2022-08-11T22:45:07.868Z,0
2022-08-11T22:46:51.571Z,1
2022-08-11T22:48:35.282Z,1
2022-08-11T22:50:18.975Z,1
2022-08-11T22:52:02.683Z,0
2022-08-11T22:53:46.386Z,1
2022-08-11T22:55:30.076Z,1
2022-08-11T22:57:13.784Z,1
2022-08-11T22:58:57.485Z,1
2022-08-11T23:00:41.183Z,0
2022-08-11T23:02:24.889Z,1
2022-08-11T23:04:08.585Z,0
2022-08-11T23:05:52.289Z,0
2022-08-11T23:07:35.998Z,1
2022-08-11T23:09:19.698Z,1
2022-08-11T23:11:03.398Z,1
2022-08-11T23:12:47.101Z,0
2022-08-11T23:14:30.790Z,0
2022-08-11T23:16:14.504Z,0
2022-08-11T23:17:58.206Z,1
2022-08-11T23:19:41.910Z,1
2022-08-11T23:21:25.613Z,0
2022-08-11T23:23:09.307Z,1
2022-08-11T23:24:53.032Z,1
2022-08-11T23:26:36.721Z,1
2022-08-11T23:28:20.415Z,1
2022-08-11T23:30:04.121Z,1
2022-08-11T23:31:47.822Z,1
2022-08-11T23:33:31.537Z,1
2022-08-11T23:35:15.223Z,2
2022-08-11T23:36:58.926Z,1
2022-08-11T23:38:42.629Z,1
2022-08-11T23:40:26.332Z,0
2022-08-11T23:42:10.026Z,1
2022-08-11T23:43:53.733Z,1
2022-08-11T23:45:37.438Z,0
2022-08-11T23:47:21.133Z,2
2022-08-11T23:49:04.835Z,1
2022-08-11T23:50:48.546Z,2
2022-08-11T23:52:32.247Z,1
2022-08-11T23:54:15.953Z,1
2022-08-11T23:55:59.649Z,1
2022-08-11T23:57:43.361Z,1
2022-08-11T23:59:27.053Z,1
